sensor_id;sensor_type;location;lat;lon;timestamp;temperature;humidity
12264;DHT22;6194;49.010;8.414;2023-05-10T00:00:37;13.10;99.90
12264;DHT22;6194;49.010;8.414;2023-05-10T00:03:03;13.20;99.90
12264;DHT22;6194;49.010;8.414;2023-05-10T00:05:30;13.10;99.90
12264;DHT22;6194;49.010;8.414;2023-05-10T00:07:56;13.10;99.90
12264;DHT22;6194;49.010;8.414;2023-05-10T00:10:21;13.20;99.90
12264;DHT22;6194;49.010;8.414;2023-05-10T00:12:47;13.10;99.90
12264;DHT22;6194;49.010;8.414;2023-05-10T00:15:12;13.10;99.90
12264;DHT22;6194;49.010;8.414;2023-05-10T00:17:38;13.10;99.90
12264;DHT22;6194;49.010;8.414;2023-05-10T00:20:04;13.10;99.90
12264;DHT22;6194;49.010;8.414;2023-05-10T00:22:30;13.10;99.90
12264;DHT22;6194;49.010;8.414;2023-05-10T00:24:57;13.10;99.90
12264;DHT22;6194;49.010;8.414;2023-05-10T00:27:22;13.10;99.90
12264;DHT22;6194;49.010;8.414;2023-05-10T00:29:48;13.20;99.90
12264;DHT22;6194;49.010;8.414;2023-05-10T00:32:13;13.10;99.90
12264;DHT22;6194;49.010;8.414;2023-05-10T00:34:39;13.10;99.90
12264;DHT22;6194;49.010;8.414;2023-05-10T00:37:05;13.10;99.90
12264;DHT22;6194;49.010;8.414;2023-05-10T00:39:30;13.10;99.90
12264;DHT22;6194;49.010;8.414;2023-05-10T00:41:56;13.20;99.90
12264;DHT22;6194;49.010;8.414;2023-05-10T00:44:22;13.10;99.90
12264;DHT22;6194;49.010;8.414;2023-05-10T00:46:48;13.10;99.90
12264;DHT22;6194;49.010;8.414;2023-05-10T00:49:15;13.10;99.90
12264;DHT22;6194;49.010;8.414;2023-05-10T00:51:41;13.10;99.90
12264;DHT22;6194;49.010;8.414;2023-05-10T00:54:09;13.30;99.90
12264;DHT22;6194;49.010;8.414;2023-05-10T00:56:36;13.10;99.90
12264;DHT22;6194;49.010;8.414;2023-05-10T00:59:02;13.10;99.90
12264;DHT22;6194;49.010;8.414;2023-05-10T01:01:28;13.10;99.90
12264;DHT22;6194;49.010;8.414;2023-05-10T01:03:55;13.10;99.90
12264;DHT22;6194;49.010;8.414;2023-05-10T01:06:21;13.40;99.90
12264;DHT22;6194;49.010;8.414;2023-05-10T01:08:47;13.10;99.90
12264;DHT22;6194;49.010;8.414;2023-05-10T01:11:13;13.10;99.90
12264;DHT22;6194;49.010;8.414;2023-05-10T01:13:41;13.10;99.90
12264;DHT22;6194;49.010;8.414;2023-05-10T01:16:07;13.00;99.90
12264;DHT22;6194;49.010;8.414;2023-05-10T01:18:36;13.10;99.90
12264;DHT22;6194;49.010;8.414;2023-05-10T01:23:55;13.10;99.90
12264;DHT22;6194;49.010;8.414;2023-05-10T01:32:34;13.10;99.90
12264;DHT22;6194;49.010;8.414;2023-05-10T01:35:06;13.00;99.90
12264;DHT22;6194;49.010;8.414;2023-05-10T01:40:40;13.00;99.90
12264;DHT22;6194;49.010;8.414;2023-05-10T01:43:13;12.90;99.90
12264;DHT22;6194;49.010;8.414;2023-05-10T01:46:01;12.90;99.90
12264;DHT22;6194;49.010;8.414;2023-05-10T01:48:30;12.90;99.90
12264;DHT22;6194;49.010;8.414;2023-05-10T01:50:57;13.00;99.90
12264;DHT22;6194;49.010;8.414;2023-05-10T01:53:23;13.00;99.90
12264;DHT22;6194;49.010;8.414;2023-05-10T01:55:51;13.10;99.90
12264;DHT22;6194;49.010;8.414;2023-05-10T01:58:28;13.10;99.90
12264;DHT22;6194;49.010;8.414;2023-05-10T02:00:55;13.10;99.90
12264;DHT22;6194;49.010;8.414;2023-05-10T02:03:24;13.10;99.90
12264;DHT22;6194;49.010;8.414;2023-05-10T02:05:52;13.10;99.90
12264;DHT22;6194;49.010;8.414;2023-05-10T02:08:21;13.10;99.90
12264;DHT22;6194;49.010;8.414;2023-05-10T02:10:48;13.20;99.90
12264;DHT22;6194;49.010;8.414;2023-05-10T02:13:16;13.10;99.90
12264;DHT22;6194;49.010;8.414;2023-05-10T02:15:43;13.10;99.90
12264;DHT22;6194;49.010;8.414;2023-05-10T02:18:10;13.20;99.90
12264;DHT22;6194;49.010;8.414;2023-05-10T02:20:37;13.20;99.90
12264;DHT22;6194;49.010;8.414;2023-05-10T02:23:04;13.10;99.90
12264;DHT22;6194;49.010;8.414;2023-05-10T02:25:31;13.10;99.90
12264;DHT22;6194;49.010;8.414;2023-05-10T02:28:00;13.10;99.90
12264;DHT22;6194;49.010;8.414;2023-05-10T02:30:27;13.10;99.90
12264;DHT22;6194;49.010;8.414;2023-05-10T02:32:54;13.10;99.90
12264;DHT22;6194;49.010;8.414;2023-05-10T02:35:22;13.10;99.90
12264;DHT22;6194;49.010;8.414;2023-05-10T02:37:48;13.10;99.90
12264;DHT22;6194;49.010;8.414;2023-05-10T02:40:16;13.10;99.90
12264;DHT22;6194;49.010;8.414;2023-05-10T02:42:44;13.10;99.90
12264;DHT22;6194;49.010;8.414;2023-05-10T02:45:13;13.10;99.90
12264;DHT22;6194;49.010;8.414;2023-05-10T02:47:39;13.10;99.90
12264;DHT22;6194;49.010;8.414;2023-05-10T02:50:05;13.00;99.90
12264;DHT22;6194;49.010;8.414;2023-05-10T02:52:39;13.00;99.90
12264;DHT22;6194;49.010;8.414;2023-05-10T02:55:05;13.10;99.90
12264;DHT22;6194;49.010;8.414;2023-05-10T02:57:35;13.10;99.90
12264;DHT22;6194;49.010;8.414;2023-05-10T03:00:04;13.10;99.90
12264;DHT22;6194;49.010;8.414;2023-05-10T03:02:30;13.00;99.90
12264;DHT22;6194;49.010;8.414;2023-05-10T03:04:56;13.00;99.90
12264;DHT22;6194;49.010;8.414;2023-05-10T03:07:22;13.00;99.90
12264;DHT22;6194;49.010;8.414;2023-05-10T03:09:50;13.00;99.90
12264;DHT22;6194;49.010;8.414;2023-05-10T03:18:07;12.80;99.90
12264;DHT22;6194;49.010;8.414;2023-05-10T03:20:47;13.10;99.90
12264;DHT22;6194;49.010;8.414;2023-05-10T03:25:47;12.70;99.90
12264;DHT22;6194;49.010;8.414;2023-05-10T03:28:14;12.60;99.90
12264;DHT22;6194;49.010;8.414;2023-05-10T03:30:41;12.60;99.90
12264;DHT22;6194;49.010;8.414;2023-05-10T03:33:08;12.60;99.90
12264;DHT22;6194;49.010;8.414;2023-05-10T03:35:33;12.60;99.90
12264;DHT22;6194;49.010;8.414;2023-05-10T03:37:59;12.60;99.90
12264;DHT22;6194;49.010;8.414;2023-05-10T03:40:26;12.60;99.90
12264;DHT22;6194;49.010;8.414;2023-05-10T03:42:54;12.60;99.90
12264;DHT22;6194;49.010;8.414;2023-05-10T03:45:20;12.60;99.90
12264;DHT22;6194;49.010;8.414;2023-05-10T03:47:46;12.60;99.90
12264;DHT22;6194;49.010;8.414;2023-05-10T03:50:12;12.50;99.90
12264;DHT22;6194;49.010;8.414;2023-05-10T03:52:37;12.50;99.90
12264;DHT22;6194;49.010;8.414;2023-05-10T03:55:05;12.60;99.90
12264;DHT22;6194;49.010;8.414;2023-05-10T03:57:31;12.60;99.90
12264;DHT22;6194;49.010;8.414;2023-05-10T03:59:56;12.60;99.90
12264;DHT22;6194;49.010;8.414;2023-05-10T04:02:22;12.60;99.90
12264;DHT22;6194;49.010;8.414;2023-05-10T04:04:47;12.60;99.90
12264;DHT22;6194;49.010;8.414;2023-05-10T04:07:13;12.50;99.90
12264;DHT22;6194;49.010;8.414;2023-05-10T04:09:39;12.50;99.90
12264;DHT22;6194;49.010;8.414;2023-05-10T04:12:05;12.80;99.90
12264;DHT22;6194;49.010;8.414;2023-05-10T04:14:31;12.50;99.90
12264;DHT22;6194;49.010;8.414;2023-05-10T04:16:56;12.70;99.90
12264;DHT22;6194;49.010;8.414;2023-05-10T04:19:22;12.60;99.90
12264;DHT22;6194;49.010;8.414;2023-05-10T04:21:47;12.70;99.90
12264;DHT22;6194;49.010;8.414;2023-05-10T04:24:13;12.70;99.90
12264;DHT22;6194;49.010;8.414;2023-05-10T04:26:39;12.70;99.90
12264;DHT22;6194;49.010;8.414;2023-05-10T04:29:04;12.70;99.90
12264;DHT22;6194;49.010;8.414;2023-05-10T04:31:30;12.80;99.90
12264;DHT22;6194;49.010;8.414;2023-05-10T04:33:56;12.80;99.90
12264;DHT22;6194;49.010;8.414;2023-05-10T04:36:21;12.90;99.90
12264;DHT22;6194;49.010;8.414;2023-05-10T04:38:47;12.90;99.90
12264;DHT22;6194;49.010;8.414;2023-05-10T04:41:12;13.20;99.90
12264;DHT22;6194;49.010;8.414;2023-05-10T04:43:38;12.90;99.90
12264;DHT22;6194;49.010;8.414;2023-05-10T04:46:04;13.00;99.90
12264;DHT22;6194;49.010;8.414;2023-05-10T04:48:30;13.00;99.90
12264;DHT22;6194;49.010;8.414;2023-05-10T04:50:56;13.10;99.90
12264;DHT22;6194;49.010;8.414;2023-05-10T04:53:22;13.10;99.90
12264;DHT22;6194;49.010;8.414;2023-05-10T04:55:48;13.10;99.90
12264;DHT22;6194;49.010;8.414;2023-05-10T04:58:14;13.10;99.90
12264;DHT22;6194;49.010;8.414;2023-05-10T05:00:39;13.30;99.90
12264;DHT22;6194;49.010;8.414;2023-05-10T05:03:05;13.20;99.90
12264;DHT22;6194;49.010;8.414;2023-05-10T05:05:31;13.20;99.90
12264;DHT22;6194;49.010;8.414;2023-05-10T05:07:57;13.40;99.90
12264;DHT22;6194;49.010;8.414;2023-05-10T05:10:22;13.40;99.90
12264;DHT22;6194;49.010;8.414;2023-05-10T05:12:48;13.40;99.90
12264;DHT22;6194;49.010;8.414;2023-05-10T05:15:13;13.40;99.90
12264;DHT22;6194;49.010;8.414;2023-05-10T05:17:42;13.50;99.90
12264;DHT22;6194;49.010;8.414;2023-05-10T05:20:07;13.50;99.90
12264;DHT22;6194;49.010;8.414;2023-05-10T05:22:33;13.40;99.90
12264;DHT22;6194;49.010;8.414;2023-05-10T05:24:59;13.50;99.90
12264;DHT22;6194;49.010;8.414;2023-05-10T05:27:25;13.50;99.90
12264;DHT22;6194;49.010;8.414;2023-05-10T05:29:57;13.60;99.90
12264;DHT22;6194;49.010;8.414;2023-05-10T05:32:23;13.60;99.90
12264;DHT22;6194;49.010;8.414;2023-05-10T05:34:49;13.60;99.90
12264;DHT22;6194;49.010;8.414;2023-05-10T05:37:16;13.70;99.90
12264;DHT22;6194;49.010;8.414;2023-05-10T05:39:43;13.70;99.90
12264;DHT22;6194;49.010;8.414;2023-05-10T05:42:12;13.90;99.90
12264;DHT22;6194;49.010;8.414;2023-05-10T05:44:38;14.00;99.90
12264;DHT22;6194;49.010;8.414;2023-05-10T05:47:04;13.00;99.90
12264;DHT22;6194;49.010;8.414;2023-05-10T05:49:30;14.10;99.90
12264;DHT22;6194;49.010;8.414;2023-05-10T05:51:59;14.20;99.90
12264;DHT22;6194;49.010;8.414;2023-05-10T05:54:25;14.30;99.90
12264;DHT22;6194;49.010;8.414;2023-05-10T05:56:56;14.30;99.90
12264;DHT22;6194;49.010;8.414;2023-05-10T05:59:22;14.40;99.90
12264;DHT22;6194;49.010;8.414;2023-05-10T06:01:48;14.40;99.90
12264;DHT22;6194;49.010;8.414;2023-05-10T06:04:14;14.30;99.90
12264;DHT22;6194;49.010;8.414;2023-05-10T06:06:40;14.40;99.90
12264;DHT22;6194;49.010;8.414;2023-05-10T06:09:05;14.50;99.90
12264;DHT22;6194;49.010;8.414;2023-05-10T06:11:31;14.60;99.90
12264;DHT22;6194;49.010;8.414;2023-05-10T06:13:58;14.60;99.90
12264;DHT22;6194;49.010;8.414;2023-05-10T06:16:23;14.70;99.90
12264;DHT22;6194;49.010;8.414;2023-05-10T06:18:49;14.80;99.90
12264;DHT22;6194;49.010;8.414;2023-05-10T06:21:14;14.80;99.90
12264;DHT22;6194;49.010;8.414;2023-05-10T06:23:41;14.80;99.90
12264;DHT22;6194;49.010;8.414;2023-05-10T06:26:07;14.80;99.90
12264;DHT22;6194;49.010;8.414;2023-05-10T06:28:32;15.00;99.90
12264;DHT22;6194;49.010;8.414;2023-05-10T06:30:59;15.10;99.90
12264;DHT22;6194;49.010;8.414;2023-05-10T06:33:24;15.30;99.90
12264;DHT22;6194;49.010;8.414;2023-05-10T06:35:50;15.70;99.90
12264;DHT22;6194;49.010;8.414;2023-05-10T06:38:15;15.40;99.90
12264;DHT22;6194;49.010;8.414;2023-05-10T06:40:42;15.40;99.90
12264;DHT22;6194;49.010;8.414;2023-05-10T06:43:08;15.20;99.90
12264;DHT22;6194;49.010;8.414;2023-05-10T06:45:33;15.30;99.90
12264;DHT22;6194;49.010;8.414;2023-05-10T06:47:59;15.60;99.90
12264;DHT22;6194;49.010;8.414;2023-05-10T06:50:25;15.70;99.90
12264;DHT22;6194;49.010;8.414;2023-05-10T06:52:51;15.70;99.90
12264;DHT22;6194;49.010;8.414;2023-05-10T06:55:17;15.80;99.90
12264;DHT22;6194;49.010;8.414;2023-05-10T06:57:42;15.90;99.90
12264;DHT22;6194;49.010;8.414;2023-05-10T07:00:08;15.90;99.90
12264;DHT22;6194;49.010;8.414;2023-05-10T07:02:35;15.70;99.90
12264;DHT22;6194;49.010;8.414;2023-05-10T07:05:01;15.80;99.90
12264;DHT22;6194;49.010;8.414;2023-05-10T07:07:27;16.10;99.90
12264;DHT22;6194;49.010;8.414;2023-05-10T07:09:53;16.20;99.90
12264;DHT22;6194;49.010;8.414;2023-05-10T07:12:18;16.30;99.90
12264;DHT22;6194;49.010;8.414;2023-05-10T07:14:44;15.90;99.90
12264;DHT22;6194;49.010;8.414;2023-05-10T07:17:10;16.00;99.90
12264;DHT22;6194;49.010;8.414;2023-05-10T07:19:35;16.00;99.90
12264;DHT22;6194;49.010;8.414;2023-05-10T07:22:01;16.30;99.90
12264;DHT22;6194;49.010;8.414;2023-05-10T07:24:27;15.80;99.90
12264;DHT22;6194;49.010;8.414;2023-05-10T07:26:52;15.70;99.90
12264;DHT22;6194;49.010;8.414;2023-05-10T07:29:18;15.80;99.90
12264;DHT22;6194;49.010;8.414;2023-05-10T07:31:43;16.00;99.90
12264;DHT22;6194;49.010;8.414;2023-05-10T07:34:09;16.20;99.90
12264;DHT22;6194;49.010;8.414;2023-05-10T07:36:35;16.00;99.90
12264;DHT22;6194;49.010;8.414;2023-05-10T07:39:01;16.10;99.90
12264;DHT22;6194;49.010;8.414;2023-05-10T07:41:27;16.20;99.90
12264;DHT22;6194;49.010;8.414;2023-05-10T07:43:52;16.30;99.90
12264;DHT22;6194;49.010;8.414;2023-05-10T07:46:18;16.10;99.90
12264;DHT22;6194;49.010;8.414;2023-05-10T07:48:45;16.40;99.90
12264;DHT22;6194;49.010;8.414;2023-05-10T07:51:10;16.50;99.90
12264;DHT22;6194;49.010;8.414;2023-05-10T07:53:37;16.50;99.90
12264;DHT22;6194;49.010;8.414;2023-05-10T07:56:23;16.60;99.90
12264;DHT22;6194;49.010;8.414;2023-05-10T07:58:49;16.60;99.90
12264;DHT22;6194;49.010;8.414;2023-05-10T08:01:15;16.60;99.90
12264;DHT22;6194;49.010;8.414;2023-05-10T08:03:40;16.50;99.90
12264;DHT22;6194;49.010;8.414;2023-05-10T08:06:06;16.50;99.90
12264;DHT22;6194;49.010;8.414;2023-05-10T08:08:31;16.40;99.90
12264;DHT22;6194;49.010;8.414;2023-05-10T08:10:57;16.60;99.90
12264;DHT22;6194;49.010;8.414;2023-05-10T08:13:23;16.60;99.90
12264;DHT22;6194;49.010;8.414;2023-05-10T08:15:48;16.90;99.90
12264;DHT22;6194;49.010;8.414;2023-05-10T08:18:14;17.50;99.90
12264;DHT22;6194;49.010;8.414;2023-05-10T08:20:39;17.70;99.90
12264;DHT22;6194;49.010;8.414;2023-05-10T08:23:05;17.50;99.90
12264;DHT22;6194;49.010;8.414;2023-05-10T08:25:31;17.70;99.90
12264;DHT22;6194;49.010;8.414;2023-05-10T08:27:57;18.20;99.90
12264;DHT22;6194;49.010;8.414;2023-05-10T08:30:22;18.80;99.90
12264;DHT22;6194;49.010;8.414;2023-05-10T08:32:48;19.20;99.90
12264;DHT22;6194;49.010;8.414;2023-05-10T08:35:13;18.70;99.90
12264;DHT22;6194;49.010;8.414;2023-05-10T08:37:39;18.10;99.90
12264;DHT22;6194;49.010;8.414;2023-05-10T08:40:05;17.60;99.90
12264;DHT22;6194;49.010;8.414;2023-05-10T08:42:34;17.10;99.90
12264;DHT22;6194;49.010;8.414;2023-05-10T08:45:02;17.30;99.90
12264;DHT22;6194;49.010;8.414;2023-05-10T08:47:29;17.50;99.90
12264;DHT22;6194;49.010;8.414;2023-05-10T08:49:55;18.00;99.90
12264;DHT22;6194;49.010;8.414;2023-05-10T08:52:23;17.80;99.90
12264;DHT22;6194;49.010;8.414;2023-05-10T08:54:51;18.00;99.90
12264;DHT22;6194;49.010;8.414;2023-05-10T08:57:17;17.80;99.90
12264;DHT22;6194;49.010;8.414;2023-05-10T08:59:44;17.60;99.90
12264;DHT22;6194;49.010;8.414;2023-05-10T09:02:10;17.40;99.90
12264;DHT22;6194;49.010;8.414;2023-05-10T09:04:37;17.50;99.90
12264;DHT22;6194;49.010;8.414;2023-05-10T09:07:02;17.70;99.90
12264;DHT22;6194;49.010;8.414;2023-05-10T09:09:28;17.70;99.90
12264;DHT22;6194;49.010;8.414;2023-05-10T09:11:54;17.60;99.90
12264;DHT22;6194;49.010;8.414;2023-05-10T09:14:20;17.70;99.90
12264;DHT22;6194;49.010;8.414;2023-05-10T09:16:47;17.60;99.90
12264;DHT22;6194;49.010;8.414;2023-05-10T09:19:13;17.60;99.90
12264;DHT22;6194;49.010;8.414;2023-05-10T09:21:38;17.50;99.90
12264;DHT22;6194;49.010;8.414;2023-05-10T09:24:05;17.60;99.90
12264;DHT22;6194;49.010;8.414;2023-05-10T09:26:31;17.50;99.90
12264;DHT22;6194;49.010;8.414;2023-05-10T09:28:58;17.10;99.90
12264;DHT22;6194;49.010;8.414;2023-05-10T09:31:25;16.70;99.90
12264;DHT22;6194;49.010;8.414;2023-05-10T09:34:08;16.80;99.90
12264;DHT22;6194;49.010;8.414;2023-05-10T09:36:33;17.20;99.90
12264;DHT22;6194;49.010;8.414;2023-05-10T09:38:59;17.30;99.90
12264;DHT22;6194;49.010;8.414;2023-05-10T09:41:25;17.80;99.90
12264;DHT22;6194;49.010;8.414;2023-05-10T09:43:55;17.70;99.90
12264;DHT22;6194;49.010;8.414;2023-05-10T09:46:21;17.70;99.90
12264;DHT22;6194;49.010;8.414;2023-05-10T09:48:48;17.70;99.90
12264;DHT22;6194;49.010;8.414;2023-05-10T09:51:24;17.60;99.90
12264;DHT22;6194;49.010;8.414;2023-05-10T09:54:17;17.50;99.90
12264;DHT22;6194;49.010;8.414;2023-05-10T09:56:43;17.30;99.90
12264;DHT22;6194;49.010;8.414;2023-05-10T09:59:12;17.40;99.90
12264;DHT22;6194;49.010;8.414;2023-05-10T10:01:38;17.70;99.90
12264;DHT22;6194;49.010;8.414;2023-05-10T10:04:05;18.10;99.90
12264;DHT22;6194;49.010;8.414;2023-05-10T10:06:40;18.50;99.90
12264;DHT22;6194;49.010;8.414;2023-05-10T10:09:07;19.00;99.90
12264;DHT22;6194;49.010;8.414;2023-05-10T10:11:35;19.40;99.90
12264;DHT22;6194;49.010;8.414;2023-05-10T10:14:01;19.70;99.90
12264;DHT22;6194;49.010;8.414;2023-05-10T10:16:29;19.20;99.90
12264;DHT22;6194;49.010;8.414;2023-05-10T10:18:55;19.20;99.90
12264;DHT22;6194;49.010;8.414;2023-05-10T10:21:22;19.00;99.90
12264;DHT22;6194;49.010;8.414;2023-05-10T10:23:47;18.50;99.90
12264;DHT22;6194;49.010;8.414;2023-05-10T10:26:14;18.50;99.90
12264;DHT22;6194;49.010;8.414;2023-05-10T10:34:27;19.30;99.90
12264;DHT22;6194;49.010;8.414;2023-05-10T10:36:54;19.70;99.90
12264;DHT22;6194;49.010;8.414;2023-05-10T10:39:20;19.50;99.90
12264;DHT22;6194;49.010;8.414;2023-05-10T10:41:56;19.70;99.90
12264;DHT22;6194;49.010;8.414;2023-05-10T10:49:52;20.80;99.90
12264;DHT22;6194;49.010;8.414;2023-05-10T10:52:27;21.00;99.90
12264;DHT22;6194;49.010;8.414;2023-05-10T10:55:17;20.70;99.90
12264;DHT22;6194;49.010;8.414;2023-05-10T11:00:35;20.70;99.90
12264;DHT22;6194;49.010;8.414;2023-05-10T11:03:11;20.60;99.90
12264;DHT22;6194;49.010;8.414;2023-05-10T11:05:48;20.70;99.90
12264;DHT22;6194;49.010;8.414;2023-05-10T11:08:30;20.70;99.90
12264;DHT22;6194;49.010;8.414;2023-05-10T11:13:51;20.20;99.90
12264;DHT22;6194;49.010;8.414;2023-05-10T11:16:23;20.70;99.90
12264;DHT22;6194;49.010;8.414;2023-05-10T11:18:59;20.90;99.90
12264;DHT22;6194;49.010;8.414;2023-05-10T11:21:27;21.00;99.90
12264;DHT22;6194;49.010;8.414;2023-05-10T11:23:55;20.70;99.90
12264;DHT22;6194;49.010;8.414;2023-05-10T11:26:26;20.50;99.90
12264;DHT22;6194;49.010;8.414;2023-05-10T11:28:55;20.70;99.90
12264;DHT22;6194;49.010;8.414;2023-05-10T11:31:22;20.70;99.90
12264;DHT22;6194;49.010;8.414;2023-05-10T11:33:53;19.90;99.90
12264;DHT22;6194;49.010;8.414;2023-05-10T11:36:21;20.30;99.90
12264;DHT22;6194;49.010;8.414;2023-05-10T11:38:48;20.30;99.90
12264;DHT22;6194;49.010;8.414;2023-05-10T11:41:15;20.00;99.90
12264;DHT22;6194;49.010;8.414;2023-05-10T11:43:42;20.20;99.90
12264;DHT22;6194;49.010;8.414;2023-05-10T11:46:10;20.40;99.90
12264;DHT22;6194;49.010;8.414;2023-05-10T11:48:38;20.50;99.90
12264;DHT22;6194;49.010;8.414;2023-05-10T11:51:03;20.10;99.90
12264;DHT22;6194;49.010;8.414;2023-05-10T11:53:33;20.00;99.90
12264;DHT22;6194;49.010;8.414;2023-05-10T11:56:09;20.10;99.90
12264;DHT22;6194;49.010;8.414;2023-05-10T11:58:36;20.30;99.90
12264;DHT22;6194;49.010;8.414;2023-05-10T12:01:04;20.10;99.90
12264;DHT22;6194;49.010;8.414;2023-05-10T12:03:30;20.00;99.90
12264;DHT22;6194;49.010;8.414;2023-05-10T12:05:57;19.80;99.90
12264;DHT22;6194;49.010;8.414;2023-05-10T12:08:25;19.80;99.90
12264;DHT22;6194;49.010;8.414;2023-05-10T12:10:51;19.80;99.90
12264;DHT22;6194;49.010;8.414;2023-05-10T12:13:18;20.20;99.90
12264;DHT22;6194;49.010;8.414;2023-05-10T12:15:44;20.00;99.90
12264;DHT22;6194;49.010;8.414;2023-05-10T12:18:10;20.30;99.90
12264;DHT22;6194;49.010;8.414;2023-05-10T12:20:36;20.70;99.90
12264;DHT22;6194;49.010;8.414;2023-05-10T12:23:02;20.90;99.90
12264;DHT22;6194;49.010;8.414;2023-05-10T12:25:36;20.70;99.90
12264;DHT22;6194;49.010;8.414;2023-05-10T12:28:07;20.30;99.90
12264;DHT22;6194;49.010;8.414;2023-05-10T12:30:34;20.70;99.90
12264;DHT22;6194;49.010;8.414;2023-05-10T12:33:11;21.00;99.90
12264;DHT22;6194;49.010;8.414;2023-05-10T12:35:51;20.90;99.90
12264;DHT22;6194;49.010;8.414;2023-05-10T12:41:06;21.00;99.90
12264;DHT22;6194;49.010;8.414;2023-05-10T12:43:32;21.00;99.90
12264;DHT22;6194;49.010;8.414;2023-05-10T12:45:58;21.20;99.90
12264;DHT22;6194;49.010;8.414;2023-05-10T12:48:24;20.90;99.90
12264;DHT22;6194;49.010;8.414;2023-05-10T12:50:50;21.00;99.90
12264;DHT22;6194;49.010;8.414;2023-05-10T12:53:15;21.20;99.90
12264;DHT22;6194;49.010;8.414;2023-05-10T12:55:42;21.20;99.90
12264;DHT22;6194;49.010;8.414;2023-05-10T12:58:08;21.20;99.90
12264;DHT22;6194;49.010;8.414;2023-05-10T13:00:34;21.30;99.90
12264;DHT22;6194;49.010;8.414;2023-05-10T13:02:59;21.40;99.90
12264;DHT22;6194;49.010;8.414;2023-05-10T13:05:25;21.40;99.90
12264;DHT22;6194;49.010;8.414;2023-05-10T13:07:50;21.20;99.90
12264;DHT22;6194;49.010;8.414;2023-05-10T13:10:16;21.20;99.90
12264;DHT22;6194;49.010;8.414;2023-05-10T13:12:42;21.20;99.90
12264;DHT22;6194;49.010;8.414;2023-05-10T13:15:07;21.10;99.90
12264;DHT22;6194;49.010;8.414;2023-05-10T13:17:33;21.20;99.90
12264;DHT22;6194;49.010;8.414;2023-05-10T13:19:59;21.20;99.90
12264;DHT22;6194;49.010;8.414;2023-05-10T13:22:25;21.20;99.90
12264;DHT22;6194;49.010;8.414;2023-05-10T13:24:50;21.00;99.90
12264;DHT22;6194;49.010;8.414;2023-05-10T13:27:16;20.90;99.90
12264;DHT22;6194;49.010;8.414;2023-05-10T13:29:41;21.20;99.90
12264;DHT22;6194;49.010;8.414;2023-05-10T13:32:07;21.80;99.90
12264;DHT22;6194;49.010;8.414;2023-05-10T13:34:33;21.90;99.90
12264;DHT22;6194;49.010;8.414;2023-05-10T13:36:58;21.90;99.90
12264;DHT22;6194;49.010;8.414;2023-05-10T13:39:24;21.80;99.90
12264;DHT22;6194;49.010;8.414;2023-05-10T13:41:49;21.60;99.90
12264;DHT22;6194;49.010;8.414;2023-05-10T13:44:15;21.30;99.90
12264;DHT22;6194;49.010;8.414;2023-05-10T13:46:42;21.10;99.90
12264;DHT22;6194;49.010;8.414;2023-05-10T13:49:08;20.80;99.90
12264;DHT22;6194;49.010;8.414;2023-05-10T13:51:34;20.70;99.90
12264;DHT22;6194;49.010;8.414;2023-05-10T13:54:01;20.90;99.90
12264;DHT22;6194;49.010;8.414;2023-05-10T13:56:27;21.20;99.90
12264;DHT22;6194;49.010;8.414;2023-05-10T13:58:52;21.30;99.90
12264;DHT22;6194;49.010;8.414;2023-05-10T14:01:18;21.40;99.90
12264;DHT22;6194;49.010;8.414;2023-05-10T14:03:44;21.40;99.90
12264;DHT22;6194;49.010;8.414;2023-05-10T14:06:10;21.10;99.90
12264;DHT22;6194;49.010;8.414;2023-05-10T14:08:35;20.90;99.90
12264;DHT22;6194;49.010;8.414;2023-05-10T14:11:02;20.40;99.90
12264;DHT22;6194;49.010;8.414;2023-05-10T14:13:27;20.50;99.90
12264;DHT22;6194;49.010;8.414;2023-05-10T14:15:53;20.20;99.90
12264;DHT22;6194;49.010;8.414;2023-05-10T14:18:19;20.30;99.90
12264;DHT22;6194;49.010;8.414;2023-05-10T14:20:45;20.30;99.90
12264;DHT22;6194;49.010;8.414;2023-05-10T14:23:11;20.30;99.90
12264;DHT22;6194;49.010;8.414;2023-05-10T14:25:39;20.50;99.90
12264;DHT22;6194;49.010;8.414;2023-05-10T14:28:05;20.40;99.90
12264;DHT22;6194;49.010;8.414;2023-05-10T14:30:31;20.30;99.90
12264;DHT22;6194;49.010;8.414;2023-05-10T14:32:56;20.50;99.90
12264;DHT22;6194;49.010;8.414;2023-05-10T14:35:23;20.20;99.90
12264;DHT22;6194;49.010;8.414;2023-05-10T14:37:49;20.30;99.90
12264;DHT22;6194;49.010;8.414;2023-05-10T14:40:14;20.70;99.90
12264;DHT22;6194;49.010;8.414;2023-05-10T14:42:41;21.30;99.90
12264;DHT22;6194;49.010;8.414;2023-05-10T14:45:07;21.60;99.90
12264;DHT22;6194;49.010;8.414;2023-05-10T14:47:34;21.70;99.90
12264;DHT22;6194;49.010;8.414;2023-05-10T14:49:59;21.90;99.90
12264;DHT22;6194;49.010;8.414;2023-05-10T14:52:25;22.30;99.90
12264;DHT22;6194;49.010;8.414;2023-05-10T14:54:51;22.20;99.90
12264;DHT22;6194;49.010;8.414;2023-05-10T14:57:16;22.20;99.90
12264;DHT22;6194;49.010;8.414;2023-05-10T14:59:42;22.20;99.90
12264;DHT22;6194;49.010;8.414;2023-05-10T15:02:08;22.60;99.90
12264;DHT22;6194;49.010;8.414;2023-05-10T15:04:33;22.70;99.90
12264;DHT22;6194;49.010;8.414;2023-05-10T15:06:59;22.70;99.90
12264;DHT22;6194;49.010;8.414;2023-05-10T15:09:25;22.80;99.90
12264;DHT22;6194;49.010;8.414;2023-05-10T15:11:53;22.50;99.90
12264;DHT22;6194;49.010;8.414;2023-05-10T15:14:18;22.00;99.90
12264;DHT22;6194;49.010;8.414;2023-05-10T15:16:44;21.00;99.90
12264;DHT22;6194;49.010;8.414;2023-05-10T15:19:09;21.00;99.90
12264;DHT22;6194;49.010;8.414;2023-05-10T15:21:35;20.90;99.90
12264;DHT22;6194;49.010;8.414;2023-05-10T15:24:05;20.60;99.90
12264;DHT22;6194;49.010;8.414;2023-05-10T15:26:31;20.10;99.90
12264;DHT22;6194;49.010;8.414;2023-05-10T15:28:56;20.30;99.90
12264;DHT22;6194;49.010;8.414;2023-05-10T15:31:22;20.00;99.90
12264;DHT22;6194;49.010;8.414;2023-05-10T15:33:47;20.10;99.90
12264;DHT22;6194;49.010;8.414;2023-05-10T15:36:13;20.50;99.90
12264;DHT22;6194;49.010;8.414;2023-05-10T15:38:38;20.60;99.90
12264;DHT22;6194;49.010;8.414;2023-05-10T15:41:04;20.20;99.90
12264;DHT22;6194;49.010;8.414;2023-05-10T15:43:30;20.30;99.90
12264;DHT22;6194;49.010;8.414;2023-05-10T15:45:56;20.10;99.90
12264;DHT22;6194;49.010;8.414;2023-05-10T15:48:21;20.10;99.90
12264;DHT22;6194;49.010;8.414;2023-05-10T15:50:47;20.40;99.90
12264;DHT22;6194;49.010;8.414;2023-05-10T15:53:12;20.40;99.90
12264;DHT22;6194;49.010;8.414;2023-05-10T15:55:38;20.20;99.90
12264;DHT22;6194;49.010;8.414;2023-05-10T15:58:04;20.00;99.90
12264;DHT22;6194;49.010;8.414;2023-05-10T16:00:29;19.90;99.90
12264;DHT22;6194;49.010;8.414;2023-05-10T16:02:55;20.10;99.90
12264;DHT22;6194;49.010;8.414;2023-05-10T16:05:21;20.20;99.90
12264;DHT22;6194;49.010;8.414;2023-05-10T16:07:46;20.20;99.90
12264;DHT22;6194;49.010;8.414;2023-05-10T16:10:13;20.40;99.90
12264;DHT22;6194;49.010;8.414;2023-05-10T16:12:39;20.40;99.90
12264;DHT22;6194;49.010;8.414;2023-05-10T16:15:05;20.60;99.90
12264;DHT22;6194;49.010;8.414;2023-05-10T16:17:31;20.50;99.90
12264;DHT22;6194;49.010;8.414;2023-05-10T16:19:56;19.20;99.90
12264;DHT22;6194;49.010;8.414;2023-05-10T16:22:22;20.00;99.90